Time;durP1;ratioP1;P1;durP2;ratioP2;P2;SDS_P1;SDS_P2;PMS_P1;PMS_P2;Temp;Humidity;BMP_temperature;BMP_pressure;BME280_temperature;BME280_humidity;BME280_pressure;Samples;Min_cycle;Max_cycle;Signal;HPM_P1;HPM_P2
2021/08/25 00:06:21;;;;;;;10.55;4.18;;;;;;;10.61;97.51;101823.91;5095859;28;20471;-87
2021/08/25 00:08:49;;;;;;;8.57;5.00;;;;;;;10.57;97.48;101824.06;5070265;28;20049;-86
2021/08/25 00:11:16;;;;;;;11.13;5.00;;;;;;;10.53;98.04;101820.69;5058751;28;20049;-84
2021/08/25 00:13:46;;;;;;;8.93;4.43;;;;;;;10.52;98.37;101819.00;5034695;28;20055;-83
2021/08/25 00:16:13;;;;;;;9.82;4.20;;;;;;;10.41;99.47;101812.47;5002007;28;20136;-83
2021/08/25 00:18:46;;;;;;;8.05;4.55;;;;;;;10.43;99.77;101807.97;5050936;28;20156;-83
2021/08/25 00:21:14;;;;;;;7.25;4.57;;;;;;;10.36;99.14;101810.84;5037497;28;20071;-83
2021/08/25 00:24:09;;;;;;;11.10;4.40;;;;;;;10.41;99.86;101805.41;5005260;28;20071;-84
2021/08/25 00:26:36;;;;;;;7.80;4.07;;;;;;;10.26;99.90;101798.09;5039499;28;20051;-85
2021/08/25 00:29:03;;;;;;;8.45;4.43;;;;;;;10.23;100.00;101798.19;5013159;28;20423;-82
2021/08/25 00:31:31;;;;;;;9.45;4.53;;;;;;;10.28;100.00;101799.75;5040961;28;20490;-84
2021/08/25 00:33:58;;;;;;;6.13;4.15;;;;;;;10.41;99.41;101786.97;5027755;28;20111;-81
2021/08/25 00:36:28;;;;;;;7.78;4.07;;;;;;;10.35;99.74;101787.22;5026362;28;20175;-86
2021/08/25 00:38:55;;;;;;;11.02;4.93;;;;;;;10.46;99.52;101786.81;5018348;28;20147;-87
2021/08/25 00:41:26;;;;;;;10.13;4.88;;;;;;;10.51;98.13;101783.06;5015421;28;20045;-87
2021/08/25 00:43:53;;;;;;;7.72;5.03;;;;;;;10.35;99.21;101774.03;5048754;28;20535;-84
2021/08/25 00:46:27;;;;;;;10.40;5.20;;;;;;;10.36;98.61;101778.41;5020750;28;20048;-83
2021/08/25 00:48:54;;;;;;;10.13;4.50;;;;;;;10.34;98.66;101782.88;5018758;28;20067;-87
2021/08/25 00:51:33;;;;;;;9.55;4.60;;;;;;;10.22;99.52;101770.16;5040179;28;20049;-86
2021/08/25 00:54:02;;;;;;;8.40;5.15;;;;;;;10.25;99.01;101775.34;5002493;28;20100;-85
2021/08/25 00:56:29;;;;;;;9.93;5.43;;;;;;;10.13;100.00;101769.63;5028812;28;20136;-86
2021/08/25 00:58:56;;;;;;;10.45;5.47;;;;;;;9.98;100.00;101769.34;5016446;28;20045;-85
2021/08/25 01:09:44;;;;;;;10.07;5.25;;;;;;;10.17;100.00;101751.91;5055290;28;20118;-84
2021/08/25 01:12:21;;;;;;;9.38;5.68;;;;;;;10.06;100.00;101754.97;5041315;28;20136;-86
2021/08/25 01:14:48;;;;;;;8.00;5.15;;;;;;;10.01;100.00;101754.28;5036109;28;20067;-88
2021/08/25 01:17:34;;;;;;;8.30;5.47;;;;;;;9.80;100.00;101757.72;5017910;28;20072;-83
2021/08/25 01:20:09;;;;;;;8.48;5.10;;;;;;;9.77;100.00;101755.22;5017663;28;20045;-82
2021/08/25 01:22:38;;;;;;;12.05;5.38;;;;;;;10.06;100.00;101744.44;5052419;28;20425;-84
2021/08/25 01:25:08;;;;;;;11.85;5.13;;;;;;;9.95;100.00;101745.75;5036030;28;20045;-83
2021/08/25 01:27:38;;;;;;;15.40;5.40;;;;;;;9.86;100.00;101742.59;5019443;28;20143;-84
2021/08/25 01:30:06;;;;;;;10.05;5.65;;;;;;;9.67;100.00;101735.44;5020580;28;20461;-82
2021/08/25 01:32:35;;;;;;;12.07;5.95;;;;;;;9.70;100.00;101737.97;5034630;28;20508;-84
2021/08/25 01:35:02;;;;;;;15.88;5.95;;;;;;;9.88;100.00;101732.00;5036686;28;20122;-83
2021/08/25 01:38:21;;;;;;;14.05;6.32;;;;;;;9.74;100.00;101739.56;5040371;28;20075;-84
2021/08/25 01:40:48;;;;;;;10.95;6.70;;;;;;;9.56;100.00;101730.59;5036690;28;20052;-85
2021/08/25 01:44:07;;;;;;;11.23;5.80;;;;;;;9.49;100.00;101737.81;5017170;28;20124;-83
2021/08/25 01:46:37;;;;;;;13.18;6.05;;;;;;;9.68;100.00;101732.78;5020129;28;20061;-85
2021/08/25 01:49:08;;;;;;;15.68;6.32;;;;;;;9.62;100.00;101728.56;5023073;28;20136;-85
2021/08/25 01:51:37;;;;;;;10.73;6.28;;;;;;;9.73;100.00;101730.81;5023430;28;20139;-84
2021/08/25 01:54:04;;;;;;;9.93;5.75;;;;;;;9.54;100.00;101727.16;5008740;28;20140;-84
2021/08/25 01:56:32;;;;;;;8.77;5.90;;;;;;;9.55;100.00;101727.09;5034920;28;20059;-87
2021/08/25 01:59:00;;;;;;;9.30;5.68;;;;;;;9.51;100.00;101730.75;5032572;28;20045;-86
2021/08/25 02:01:52;;;;;;;9.80;5.35;;;;;;;9.59;100.00;101717.31;5019198;28;20045;-85
2021/08/25 02:04:20;;;;;;;11.43;5.15;;;;;;;9.45;100.00;101715.19;5030449;28;20119;-84
2021/08/25 02:11:05;;;;;;;7.20;4.53;;;;;;;9.61;100.00;101711.09;5054995;28;20132;-83
2021/08/25 02:13:33;;;;;;;9.80;5.25;;;;;;;9.68;100.00;101714.38;5022773;28;20460;-84
2021/08/25 02:16:00;;;;;;;9.10;5.93;;;;;;;9.46;100.00;101706.41;5027997;28;20060;-84
2021/08/25 02:18:36;;;;;;;8.63;5.00;;;;;;;9.34;100.00;101709.50;5022317;28;20174;-85
2021/08/25 02:21:33;;;;;;;9.32;4.95;;;;;;;9.45;100.00;101702.06;5032214;28;20087;-84
2021/08/25 02:24:00;;;;;;;;;;;;;;;9.24;100.00;101703.72;5018109;28;20087;-83
2021/08/25 02:26:56;;;;;;;10.75;5.07;;;;;;;9.32;100.00;101696.41;5052047;28;19921;-86
2021/08/25 02:29:24;;;;;;;11.32;5.40;;;;;;;9.23;100.00;101693.25;5017750;28;20050;-82
2021/08/25 02:31:51;;;;;;;8.23;4.85;;;;;;;9.20;100.00;101688.97;5003062;28;20057;-84
2021/08/25 02:34:18;;;;;;;8.70;5.07;;;;;;;9.09;100.00;101691.13;5036435;28;20376;-84
2021/08/25 02:37:48;;;;;;;6.82;5.13;;;;;;;9.21;100.00;101677.53;5058130;28;20061;-83
2021/08/25 02:40:19;;;;;;;9.07;5.60;;;;;;;9.11;100.00;101670.91;5036952;28;20045;-87
2021/08/25 02:42:51;;;;;;;8.07;4.75;;;;;;;9.22;100.00;101671.38;5058882;28;20071;-87
2021/08/25 02:45:19;;;;;;;9.82;5.43;;;;;;;9.25;100.00;101668.63;5039935;28;20140;-84
2021/08/25 02:47:46;;;;;;;12.32;5.65;;;;;;;9.43;100.00;101661.84;5034607;28;20435;-85
2021/08/25 02:50:13;;;;;;;9.73;5.75;;;;;;;9.46;100.00;101661.75;5002147;28;20049;-83
2021/08/25 02:52:41;;;;;;;10.88;4.93;;;;;;;9.42;100.00;101668.03;4999669;28;20037;-86
2021/08/25 02:55:36;;;;;;;10.15;4.93;;;;;;;9.42;100.00;101656.66;5020879;28;20069;-84
2021/08/25 02:58:07;;;;;;;7.72;4.93;;;;;;;9.28;100.00;101658.03;5033515;28;20087;-83
2021/08/25 03:00:35;;;;;;;8.32;4.82;;;;;;;9.23;100.00;101657.34;5056389;28;20086;-83
2021/08/25 03:03:02;;;;;;;9.80;5.20;;;;;;;9.12;100.00;101656.84;5039596;28;20143;-85
2021/08/25 03:05:30;;;;;;;10.23;5.07;;;;;;;9.30;100.00;101658.81;5040589;28;20080;-85
2021/08/25 03:08:06;;;;;;;12.13;5.05;;;;;;;9.22;100.00;101647.72;5056502;28;20058;-85
2021/08/25 03:10:36;;;;;;;10.05;5.82;;;;;;;9.38;100.00;101651.50;5056382;28;20120;-85
2021/08/25 03:13:03;;;;;;;7.70;4.93;;;;;;;9.36;100.00;101647.19;5045805;28;20064;-84
2021/08/25 03:16:21;;;;;;;7.38;4.20;;;;;;;9.54;100.00;101640.41;5023709;28;20076;-85
2021/08/25 03:18:49;;;;;;;8.38;5.03;;;;;;;9.45;100.00;101636.34;5039615;28;20548;-84
2021/08/25 03:21:17;;;;;;;11.63;5.30;;;;;;;9.54;100.00;101630.72;5056369;28;20211;-84
2021/08/25 03:23:46;;;;;;;8.88;4.72;;;;;;;9.55;100.00;101627.22;5022628;28;20090;-86
2021/08/25 03:26:17;;;;;;;7.82;4.78;;;;;;;9.57;100.00;101624.50;5034624;28;20060;-85
2021/08/25 03:28:44;;;;;;;8.23;4.45;;;;;;;9.50;100.00;101623.03;5074465;28;20135;-84
2021/08/25 03:31:25;;;;;;;10.90;5.07;;;;;;;9.53;100.00;101622.91;5036352;28;20128;-84
2021/08/25 03:33:54;;;;;;;10.18;5.25;;;;;;;9.20;100.00;101622.44;5029882;28;20060;-84
2021/08/25 03:36:24;;;;;;;13.20;5.97;;;;;;;9.12;100.00;101615.69;5034412;28;20143;-86
2021/08/25 03:38:51;;;;;;;12.18;5.75;;;;;;;9.00;100.00;101621.38;5040507;28;20147;-86
2021/08/25 03:41:18;;;;;;;9.40;5.38;;;;;;;9.05;100.00;101614.22;5031564;28;20493;-85
2021/08/25 03:43:46;;;;;;;14.75;6.20;;;;;;;9.02;100.00;101613.47;5035640;28;20565;-84
2021/08/25 03:46:16;;;;;;;12.25;6.05;;;;;;;9.07;100.00;101617.63;5038336;28;20073;-84
2021/08/25 03:48:43;;;;;;;13.93;5.90;;;;;;;9.03;100.00;101609.91;5035622;28;20048;-85
2021/08/25 03:51:33;;;;;;;12.73;6.38;;;;;;;8.97;100.00;101612.78;5051168;28;20480;-84
2021/08/25 03:54:00;;;;;;;13.52;5.75;;;;;;;8.96;100.00;101614.56;5057386;28;20135;-83
2021/08/25 03:56:27;;;;;;;11.82;6.78;;;;;;;9.05;100.00;101619.47;5034771;28;20076;-88
2021/08/25 03:58:54;;;;;;;20.30;9.07;;;;;;;9.00;100.00;101613.50;5041344;28;20136;-83
2021/08/25 04:01:26;;;;;;;10.85;5.68;;;;;;;8.87;100.00;101609.59;5047286;28;20126;-88
2021/08/25 04:03:57;;;;;;;11.70;5.72;;;;;;;8.98;100.00;101610.09;5017824;28;20079;-85
2021/08/25 04:06:26;;;;;;;10.82;6.15;;;;;;;8.96;100.00;101613.66;5040694;28;20048;-82
2021/08/25 04:08:56;;;;;;;12.88;7.22;;;;;;;9.00;100.00;101616.13;5004235;28;20059;-86
2021/08/25 04:11:25;;;;;;;9.80;5.75;;;;;;;9.24;100.00;101605.66;5004924;28;20136;-84
2021/08/25 04:13:52;;;;;;;7.95;4.88;;;;;;;9.44;100.00;101605.72;5026263;28;20041;-85
2021/08/25 04:16:21;;;;;;;9.63;5.35;;;;;;;9.49;100.00;101606.41;5040072;28;20120;-89
2021/08/25 04:18:49;;;;;;;9.65;6.28;;;;;;;9.27;100.00;101602.88;5019018;28;20103;-88
2021/08/25 04:21:16;;;;;;;12.38;6.60;;;;;;;9.17;100.00;101605.00;5019023;28;20061;-84
2021/08/25 04:23:44;;;;;;;10.60;6.05;;;;;;;9.24;100.00;101608.28;5043921;28;20488;-83
2021/08/25 04:26:21;;;;;;;10.27;5.90;;;;;;;9.10;100.00;101600.91;5027603;28;20076;-83
2021/08/25 04:28:54;;;;;;;13.35;6.40;;;;;;;9.10;100.00;101603.53;5032456;28;20072;-84
2021/08/25 04:31:21;;;;;;;14.05;7.38;;;;;;;9.25;100.00;101609.97;5038172;28;20053;-80
2021/08/25 04:33:49;;;;;;;9.43;5.95;;;;;;;9.37;100.00;101607.75;5014563;28;20053;-84
2021/08/25 04:36:16;;;;;;;9.88;6.40;;;;;;;9.61;100.00;101599.81;5049000;28;20136;-81
2021/08/25 04:38:43;;;;;;;10.45;4.95;;;;;;;9.58;100.00;101595.53;5050120;28;20052;-83
2021/08/25 04:41:11;;;;;;;17.67;7.65;;;;;;;9.46;100.00;101595.19;5017636;28;20073;-86
2021/08/25 04:43:38;;;;;;;11.43;6.45;;;;;;;9.61;100.00;101592.78;5035739;28;20139;-82
2021/08/25 04:46:07;;;;;;;9.65;5.10;;;;;;;9.76;100.00;101586.06;5058765;28;20045;-84
2021/08/25 04:48:35;;;;;;;8.73;5.82;;;;;;;9.78;100.00;101584.25;5063965;28;20059;-82
2021/08/25 04:51:02;;;;;;;9.18;5.40;;;;;;;9.94;100.00;101581.81;5048131;28;20094;-78
2021/08/25 04:53:29;;;;;;;11.98;5.60;;;;;;;10.19;100.00;101580.81;5053711;28;20053;-81
2021/08/25 04:55:57;;;;;;;11.70;5.65;;;;;;;10.27;100.00;101578.75;5035586;28;20152;-85
2021/08/25 04:58:24;;;;;;;12.35;6.30;;;;;;;10.42;100.00;101569.34;5033499;28;20106;-82
2021/08/25 05:00:51;;;;;;;14.02;6.30;;;;;;;10.71;99.24;101570.69;5015225;28;20056;-83
2021/08/25 05:03:19;;;;;;;13.32;6.13;;;;;;;10.74;98.42;101558.25;5033244;28;20072;-84
2021/08/25 05:05:46;;;;;;;9.15;5.55;;;;;;;10.67;98.51;101555.94;5044321;28;20259;-79
2021/08/25 05:08:13;;;;;;;14.98;5.97;;;;;;;10.73;97.13;101556.53;5065180;28;20044;-76
2021/08/25 05:10:46;;;;;;;11.98;5.47;;;;;;;11.01;96.85;101548.25;5064403;28;20427;-81
2021/08/25 05:13:13;;;;;;;10.05;5.32;;;;;;;11.15;95.40;101544.97;5016846;28;20095;-80
2021/08/25 05:15:45;;;;;;;9.40;5.25;;;;;;;11.59;92.40;101542.84;5021050;28;20514;-83
2021/08/25 05:18:13;;;;;;;14.10;6.32;;;;;;;11.41;93.07;101541.09;5041942;28;20121;-83
2021/08/25 05:20:40;;;;;;;17.45;10.52;;;;;;;11.52;91.65;101545.84;5029384;28;20500;-81
2021/08/25 05:23:07;;;;;;;9.82;6.03;;;;;;;11.59;91.81;101548.13;5046630;28;20049;-83
2021/08/25 05:25:36;;;;;;;12.15;5.70;;;;;;;11.84;90.72;101539.03;5063115;28;20045;-83
2021/08/25 05:28:04;;;;;;;13.70;5.00;;;;;;;11.74;90.48;101541.25;5046713;28;20045;-81
2021/08/25 05:30:32;;;;;;;13.77;5.93;;;;;;;11.95;89.53;101542.00;4997632;28;20041;-80
2021/08/25 05:32:59;;;;;;;15.48;6.50;;;;;;;11.86;88.82;101539.84;5045866;28;20128;-81
2021/08/25 05:35:26;;;;;;;37.17;6.97;;;;;;;12.01;88.82;101532.91;5031792;28;20463;-84
2021/08/25 05:37:55;;;;;;;17.00;7.32;;;;;;;12.12;87.98;101534.09;5014154;28;20124;-83
2021/08/25 05:40:22;;;;;;;15.07;5.47;;;;;;;12.21;87.59;101534.56;5014454;28;20137;-82
2021/08/25 05:42:49;;;;;;;16.50;6.15;;;;;;;12.26;86.89;101533.41;5014869;28;20649;-83
2021/08/25 05:45:17;;;;;;;12.27;5.82;;;;;;;12.42;85.86;101528.16;5031305;28;20071;-82
2021/08/25 05:47:45;;;;;;;15.10;5.57;;;;;;;12.66;84.13;101529.53;5030172;28;20056;-81
2021/08/25 05:50:15;;;;;;;13.93;6.50;;;;;;;12.83;82.78;101530.38;4998864;28;20057;-82
2021/08/25 05:52:42;;;;;;;12.27;5.75;;;;;;;13.16;82.33;101523.28;4999822;28;20055;-82
2021/08/25 05:55:10;;;;;;;10.25;5.72;;;;;;;13.57;80.19;101516.63;5010472;28;20045;-82
2021/08/25 05:57:45;;;;;;;10.18;5.45;;;;;;;13.87;77.44;101516.66;5026841;28;20568;-82
2021/08/25 06:00:14;;;;;;;14.73;5.32;;;;;;;14.11;76.26;101517.84;5031251;28;20061;-83
2021/08/25 06:02:49;;;;;;;9.88;5.93;;;;;;;14.39;74.47;101513.53;5023288;28;20044;-82
2021/08/25 06:05:17;;;;;;;11.27;5.53;;;;;;;15.15;71.44;101513.25;5031484;28;20537;-78
2021/08/25 06:07:44;;;;;;;9.90;5.20;;;;;;;16.23;67.04;101510.53;5047249;28;20068;-79
2021/08/25 06:10:11;;;;;;;14.80;6.22;;;;;;;17.29;62.76;101513.69;5044767;28;20068;-80
2021/08/25 06:12:39;;;;;;;11.45;4.95;;;;;;;17.55;60.30;101506.44;5010943;28;20129;-78
2021/08/25 06:15:07;;;;;;;9.98;5.32;;;;;;;18.35;58.74;101510.13;5040892;28;20056;-79
2021/08/25 06:18:24;;;;;;;9.00;4.90;;;;;;;19.25;54.43;101506.59;5039563;28;20359;-83
2021/08/25 06:21:44;;;;;;;11.43;5.13;;;;;;;19.44;53.55;101504.97;5046903;28;20071;-77
2021/08/25 06:24:11;;;;;;;11.93;5.35;;;;;;;18.81;54.98;101495.03;5026970;28;20075;-77
2021/08/25 06:26:39;;;;;;;12.25;5.82;;;;;;;18.58;56.02;101499.47;5041611;28;20134;-78
2021/08/25 06:29:06;;;;;;;23.05;7.38;;;;;;;18.65;55.92;101490.88;5043352;28;20112;-78
2021/08/25 06:31:34;;;;;;;13.20;5.10;;;;;;;18.80;55.73;101485.31;5028062;28;20052;-79
2021/08/25 06:34:01;;;;;;;8.45;5.65;;;;;;;18.84;55.38;101484.13;5041399;28;20457;-78
2021/08/25 06:36:31;;;;;;;10.48;6.03;;;;;;;18.87;55.14;101476.72;5003376;28;20049;-81
2021/08/25 06:39:00;;;;;;;10.88;4.88;;;;;;;18.77;55.55;101482.91;5043907;28;20044;-78
2021/08/25 06:41:28;;;;;;;11.13;5.78;;;;;;;18.77;55.37;101478.41;5024168;28;20052;-80
2021/08/25 06:43:55;;;;;;;12.30;6.40;;;;;;;17.91;58.48;101479.75;5025960;28;20073;-78
2021/08/25 06:46:22;;;;;;;16.92;5.57;;;;;;;18.33;57.95;101482.75;5046615;28;20052;-82
2021/08/25 06:48:50;;;;;;;10.05;4.90;;;;;;;19.15;54.42;101479.81;4993076;28;20128;-77
2021/08/25 06:51:17;;;;;;;11.10;4.43;;;;;;;19.48;51.89;101490.38;5032707;28;20235;-78
2021/08/25 06:53:44;;;;;;;17.95;4.55;;;;;;;19.34;51.08;101488.00;5021077;28;20135;-77
2021/08/25 06:56:11;;;;;;;8.20;4.65;;;;;;;19.70;50.87;101483.28;5047211;28;20144;-78
2021/08/25 06:58:39;;;;;;;11.00;4.25;;;;;;;20.36;49.00;101469.66;5044363;28;20045;-78
2021/08/25 07:01:07;;;;;;;6.75;3.95;;;;;;;20.74;48.48;101469.84;5029772;28;20090;-78
2021/08/25 07:03:36;;;;;;;16.88;4.60;;;;;;;20.86;47.19;101461.72;5011596;28;20468;-76
2021/08/25 07:06:04;;;;;;;13.35;4.57;;;;;;;21.65;45.28;101465.19;5047182;28;20087;-80
2021/08/25 07:08:31;;;;;;;11.90;4.40;;;;;;;21.62;44.40;101462.81;5015632;28;20164;-76
2021/08/25 07:10:59;;;;;;;11.35;4.22;;;;;;;21.78;44.39;101461.38;5036096;28;20041;-78
2021/08/25 07:13:29;;;;;;;7.18;3.83;;;;;;;23.39;41.01;101460.16;5032469;28;20140;-77
2021/08/25 07:15:56;;;;;;;12.75;4.30;;;;;;;23.93;39.65;101447.53;5032551;28;20500;-77
2021/08/25 07:18:23;;;;;;;10.48;4.85;;;;;;;22.65;41.67;101448.59;5051153;28;20129;-76
2021/08/25 07:20:51;;;;;;;8.70;4.88;;;;;;;21.46;43.57;101441.94;5032813;28;20049;-78
2021/08/25 07:23:18;;;;;;;16.25;3.88;;;;;;;20.81;44.72;101446.06;5035824;28;20153;-76
2021/08/25 07:25:46;;;;;;;11.45;5.10;;;;;;;21.05;44.77;101428.78;5036018;28;20079;-78
2021/08/25 07:28:13;;;;;;;6.80;4.63;;;;;;;20.79;44.90;101426.59;5031776;28;20135;-78
2021/08/25 07:30:41;;;;;;;10.98;3.78;;;;;;;21.44;42.75;101440.41;5055284;28;20076;-77
2021/08/25 07:33:14;;;;;;;9.93;4.38;;;;;;;20.54;45.00;101433.31;5051716;28;20045;-79
2021/08/25 07:35:46;;;;;;;9.38;4.40;;;;;;;21.32;43.71;101426.28;5005511;28;20440;-78
2021/08/25 07:38:16;;;;;;;8.25;4.28;;;;;;;22.58;41.43;101426.03;5031457;28;20108;-78
2021/08/25 07:40:44;;;;;;;6.00;3.70;;;;;;;23.72;38.17;101413.75;5037371;28;20040;-80
2021/08/25 07:43:11;;;;;;;8.60;4.13;;;;;;;23.54;37.58;101417.47;5035170;28;20067;-78
2021/08/25 07:45:39;;;;;;;16.27;4.82;;;;;;;24.11;36.47;101413.34;5030974;28;20075;-79
2021/08/25 07:48:07;;;;;;;9.02;4.15;;;;;;;25.33;33.65;101414.81;5049923;28;20087;-79
2021/08/25 07:50:34;;;;;;;6.82;3.90;;;;;;;24.69;34.81;101409.94;5050024;28;20448;-77
2021/08/25 07:53:01;;;;;;;6.25;3.83;;;;;;;23.78;36.82;101414.16;5045031;28;20087;-80
2021/08/25 07:55:29;;;;;;;7.35;3.38;;;;;;;23.11;38.38;101421.78;5045896;28;20068;-77
2021/08/25 07:57:58;;;;;;;14.00;3.88;;;;;;;22.85;38.81;101421.63;5031894;28;20049;-79
2021/08/25 08:00:26;;;;;;;5.88;3.47;;;;;;;24.09;36.35;101411.81;5042777;28;20052;-77
2021/08/25 08:02:54;;;;;;;6.65;3.55;;;;;;;25.10;34.39;101411.94;5022874;28;20140;-79
2021/08/25 08:05:22;;;;;;;15.48;4.25;;;;;;;24.85;35.34;101409.13;5041071;28;20037;-80
2021/08/25 08:07:51;;;;;;;5.55;3.55;;;;;;;24.72;34.71;101406.94;5048166;28;20088;-77
2021/08/25 08:10:23;;;;;;;8.43;3.83;;;;;;;24.71;34.91;101393.63;5032663;28;20080;-78
2021/08/25 08:12:52;;;;;;;6.50;3.83;;;;;;;23.93;36.04;101383.84;5050135;28;20049;-78
2021/08/25 08:15:20;;;;;;;6.90;3.65;;;;;;;22.77;38.46;101395.53;5037824;28;20049;-77
2021/08/25 08:17:47;;;;;;;8.27;3.45;;;;;;;22.33;39.52;101386.47;5016456;28;20048;-78
2021/08/25 08:20:15;;;;;;;8.23;3.63;;;;;;;21.79;40.69;101379.97;5053670;28;20052;-77
2021/08/25 08:22:45;;;;;;;8.15;3.72;;;;;;;20.48;42.36;101374.97;5048484;28;20120;-78
2021/08/25 08:25:12;;;;;;;6.00;3.78;;;;;;;20.90;43.14;101377.50;5004043;28;20496;-78
2021/08/25 08:27:40;;;;;;;5.30;3.85;;;;;;;20.41;43.55;101377.34;5055538;28;20392;-79
2021/08/25 08:30:08;;;;;;;11.52;4.53;;;;;;;19.83;45.47;101374.41;5017284;28;20053;-81
2021/08/25 08:32:38;;;;;;;10.52;3.75;;;;;;;20.82;43.91;101367.47;5032680;28;20037;-78
2021/08/25 08:35:06;;;;;;;16.10;4.20;;;;;;;20.57;44.89;101373.31;5038840;28;20049;-80
2021/08/25 08:37:33;;;;;;;11.85;3.97;;;;;;;20.12;43.80;101361.16;5042037;28;21082;-79
2021/08/25 08:40:00;;;;;;;9.10;4.70;;;;;;;20.96;42.96;101361.69;5033231;28;20049;-78
2021/08/25 08:42:32;;;;;;;14.80;3.70;;;;;;;20.35;44.90;101369.00;5046687;28;20147;-81
2021/08/25 08:45:02;;;;;;;7.75;3.60;;;;;;;21.34;42.42;101361.88;5030520;28;20143;-78
2021/08/25 08:47:30;;;;;;;9.35;3.28;;;;;;;20.93;43.50;101356.63;5034527;28;20484;-80
2021/08/25 08:49:59;;;;;;;6.78;3.50;;;;;;;21.36;43.43;101358.06;5049966;28;20097;-78
2021/08/25 08:52:27;;;;;;;7.55;3.90;;;;;;;21.44;43.27;101349.31;5034214;28;20140;-76
2021/08/25 08:54:59;;;;;;;11.25;4.07;;;;;;;20.17;46.47;101356.28;5033832;28;20041;-76
2021/08/25 08:57:26;;;;;;;17.60;4.75;;;;;;;20.83;46.37;101350.41;5032449;28;20508;-79
2021/08/25 08:59:53;;;;;;;6.80;3.97;;;;;;;20.89;45.56;101341.84;5002043;28;20523;-79
2021/08/25 09:02:42;;;;;;;11.25;3.55;;;;;;;20.64;45.71;101343.22;5036206;28;20145;-78
2021/08/25 09:05:27;;;;;;;10.25;3.75;;;;;;;20.56;46.55;101335.03;5018365;28;20135;-78
2021/08/25 09:08:01;;;;;;;8.05;3.00;;;;;;;20.57;45.50;101325.16;5038533;28;20111;-78
2021/08/25 09:10:31;;;;;;;9.13;3.88;;;;;;;20.03;46.94;101323.72;5030492;28;20077;-80
2021/08/25 09:13:10;;;;;;;7.72;3.67;;;;;;;19.84;47.34;101319.97;5033729;28;20060;-81
2021/08/25 09:15:40;;;;;;;12.38;4.47;;;;;;;20.37;47.41;101316.25;5032532;28;20052;-82
2021/08/25 09:18:14;;;;;;;6.00;3.42;;;;;;;20.65;46.95;101309.28;5033669;28;20464;-80
2021/08/25 09:20:48;;;;;;;8.15;4.18;;;;;;;20.70;47.49;101315.91;5049178;28;20079;-80
2021/08/25 09:23:18;;;;;;;11.15;3.95;;;;;;;20.36;47.97;101311.88;5033803;28;20061;-81
2021/08/25 09:25:51;;;;;;;10.90;3.10;;;;;;;20.28;48.99;101307.22;5015648;28;20402;-81
2021/08/25 09:28:29;;;;;;;8.40;3.67;;;;;;;20.21;49.02;101303.38;5033373;28;20049;-80
2021/08/25 09:31:02;;;;;;;12.93;3.70;;;;;;;20.06;49.81;101300.25;5052818;28;20072;-79
2021/08/25 09:33:34;;;;;;;8.90;3.88;;;;;;;19.81;50.65;101300.69;5033322;28;20261;-82
2021/08/25 09:36:07;;;;;;;13.05;4.30;;;;;;;19.63;50.69;101297.78;5052866;28;20785;-82
2021/08/25 09:38:35;;;;;;;20.90;4.78;;;;;;;19.38;50.88;101285.69;5046938;28;20096;-81
2021/08/25 09:41:10;;;;;;;6.55;3.60;;;;;;;19.65;50.49;101283.34;5014704;28;20056;-81
2021/08/25 09:43:45;;;;;;;8.75;3.78;;;;;;;19.59;50.97;101277.66;5011672;28;20056;-80
2021/08/25 09:46:13;;;;;;;10.68;3.88;;;;;;;19.86;50.04;101282.47;5031632;28;20041;-81
2021/08/25 09:48:52;;;;;;;14.18;4.10;;;;;;;20.24;49.78;101279.06;5011255;28;20045;-78
2021/08/25 09:51:22;;;;;;;9.25;3.80;;;;;;;20.05;50.23;101277.19;5029965;28;20068;-80
2021/08/25 09:53:51;;;;;;;10.63;3.95;;;;;;;19.96;49.89;101269.97;5010258;28;21340;-79
2021/08/25 09:56:24;;;;;;;5.35;3.78;;;;;;;20.13;50.02;101266.66;5033506;28;20129;-85
2021/08/25 09:58:52;;;;;;;8.32;3.90;;;;;;;20.16;50.39;101268.19;5026455;28;20091;-81
2021/08/25 10:01:20;;;;;;;8.35;3.70;;;;;;;20.00;51.01;101271.41;5039963;28;20080;-78
2021/08/25 10:03:48;;;;;;;9.48;3.58;;;;;;;19.87;51.61;101255.59;5022753;28;20049;-79
2021/08/25 10:06:17;;;;;;;10.60;4.32;;;;;;;19.72;52.40;101251.59;5034545;28;20514;-79
2021/08/25 10:08:45;;;;;;;10.55;3.75;;;;;;;19.54;52.72;101253.16;5032607;28;20136;-81
2021/08/25 10:11:13;;;;;;;7.00;3.88;;;;;;;19.52;53.02;101247.13;5069242;28;20056;-80
2021/08/25 10:13:41;;;;;;;7.18;3.78;;;;;;;19.40;53.85;101235.66;5026180;28;20051;-82
2021/08/25 10:16:12;;;;;;;7.57;3.20;;;;;;;19.10;54.10;101242.66;5016687;28;20479;-77
2021/08/25 10:18:42;;;;;;;6.40;3.53;;;;;;;19.24;53.76;101236.16;5050787;28;20077;-83
2021/08/25 10:21:41;;;;;;;9.43;4.07;;;;;;;19.20;53.16;101229.38;5023625;28;20067;-80
2021/08/25 10:24:08;;;;;;;10.05;3.25;;;;;;;19.15;53.08;101223.59;5026491;28;20053;-78
2021/08/25 10:26:59;;;;;;;7.82;3.30;;;;;;;19.10;53.05;101215.97;5046102;28;20063;-82
2021/08/25 10:29:26;;;;;;;8.00;3.22;;;;;;;19.05;54.20;101215.53;5033484;28;20069;-81
2021/08/25 10:31:54;;;;;;;6.65;3.53;;;;;;;19.03;53.50;101201.47;5015486;28;20641;-80
2021/08/25 10:34:27;;;;;;;9.52;4.25;;;;;;;18.70;53.73;101198.00;5031571;28;20236;-82
2021/08/25 10:37:12;;;;;;;8.88;3.72;;;;;;;18.74;53.61;101189.75;5018562;28;20118;-78
2021/08/25 10:39:41;;;;;;;6.85;3.83;;;;;;;18.88;53.15;101182.28;5045951;28;20442;-80
2021/08/25 10:42:09;;;;;;;19.08;4.47;;;;;;;18.84;53.17;101177.31;5034715;28;20068;-80
2021/08/25 10:44:36;;;;;;;9.93;4.00;;;;;;;18.81;53.69;101175.75;5035272;28;20450;-80
2021/08/25 10:47:04;;;;;;;8.38;3.85;;;;;;;18.82;53.79;101168.59;5052563;28;20477;-80
2021/08/25 10:49:33;;;;;;;7.05;3.60;;;;;;;18.77;54.00;101163.66;5033901;28;20112;-82
2021/08/25 10:52:15;;;;;;;8.80;3.90;;;;;;;19.01;53.55;101154.56;5030949;28;20056;-80
2021/08/25 10:54:44;;;;;;;8.27;3.50;;;;;;;19.08;53.33;101139.69;5018194;28;20068;-81
2021/08/25 10:57:14;;;;;;;9.07;3.53;;;;;;;19.23;53.08;101138.38;5045823;28;20068;-80
2021/08/25 10:59:41;;;;;;;6.20;3.90;;;;;;;19.35;53.52;101136.44;5013219;28;20090;-80
2021/08/25 11:02:10;;;;;;;11.00;4.28;;;;;;;19.57;52.83;101135.38;4992531;28;20044;-80
2021/08/25 11:04:38;;;;;;;9.32;3.55;;;;;;;19.83;52.17;101123.25;5023575;28;20129;-79
2021/08/25 11:07:12;;;;;;;9.05;4.22;;;;;;;20.10;50.76;101127.09;5030041;28;20464;-81
2021/08/25 11:09:51;;;;;;;10.25;4.05;;;;;;;20.52;49.93;101111.59;5031948;28;20053;-79
2021/08/25 11:12:21;;;;;;;7.38;3.85;;;;;;;20.67;49.84;101112.03;5045499;28;20057;-80
2021/08/25 11:14:57;;;;;;;8.95;4.13;;;;;;;20.92;49.90;101107.88;5025142;28;20053;-80
2021/08/25 11:17:32;;;;;;;9.80;4.22;;;;;;;20.95;48.97;101102.22;5025560;28;20138;-79
2021/08/25 11:20:05;;;;;;;8.60;3.78;;;;;;;20.88;49.84;101096.59;5027918;28;20809;-79
2021/08/25 11:22:36;;;;;;;7.43;3.83;;;;;;;20.70;49.55;101083.13;5043037;28;20163;-80
2021/08/25 11:25:13;;;;;;;9.82;3.58;;;;;;;21.17;48.26;101079.59;5031851;28;20095;-80
2021/08/25 11:27:45;;;;;;;6.60;3.13;;;;;;;21.17;47.72;101069.72;5042687;28;20057;-80
2021/08/25 11:30:19;;;;;;;10.13;3.70;;;;;;;21.15;48.31;101057.47;5048596;28;20420;-78
2021/08/25 11:33:00;;;;;;;5.72;3.35;;;;;;;21.39;47.19;101047.09;5041841;28;20029;-81
2021/08/25 11:35:34;;;;;;;6.45;3.35;;;;;;;21.66;47.20;101043.53;5045176;28;20160;-81
2021/08/25 11:38:02;;;;;;;5.53;3.65;;;;;;;21.43;48.21;101032.41;5028415;28;20044;-80
2021/08/25 11:40:31;;;;;;;8.80;3.60;;;;;;;21.38;47.70;101029.31;5044653;28;20244;-80
2021/08/25 11:43:24;;;;;;;5.55;3.50;;;;;;;21.16;47.55;101011.81;5046609;28;20445;-83
2021/08/25 11:45:53;;;;;;;6.10;3.80;;;;;;;21.05;48.60;101009.34;5016653;28;20080;-81
2021/08/25 11:48:26;;;;;;;7.72;3.83;;;;;;;21.02;48.89;101001.59;5030481;28;20059;-84
2021/08/25 11:50:54;;;;;;;12.45;3.88;;;;;;;20.87;50.02;100992.38;5039897;28;20049;-82
2021/08/25 11:53:26;;;;;;;7.15;3.40;;;;;;;20.74;49.77;100987.38;5049518;28;20068;-81
2021/08/25 11:55:56;;;;;;;6.80;3.50;;;;;;;20.48;50.72;100979.16;5050254;28;20099;-83
2021/08/25 11:58:30;;;;;;;8.07;3.28;;;;;;;20.30;51.08;100979.03;5033483;28;20128;-80